Time;durP1;ratioP1;P1;durP2;ratioP2;P2;SDS_P1;SDS_P2;PMS_P1;PMS_P2;Temp;Humidity;BMP_temperature;BMP_pressure;BME280_temperature;BME280_humidity;BME280_pressure;Samples;Min_cycle;Max_cycle;Signal;HPM_P1;HPM_P2
2023/05/25 03:16:24;;;;;;;10.30;4.00;;;11.50;99.90;;;;;;6166222;22;93565;-69
2023/05/25 03:18:50;;;;;;;10.27;3.97;;;11.50;99.90;;;;;;6273313;22;93251;-69
2023/05/25 03:21:16;;;;;;;12.27;4.88;;;11.40;99.90;;;;;;6261132;22;92970;-68
2023/05/25 03:23:41;;;;;;;14.30;4.80;;;11.40;99.90;;;;;;6265359;22;93278;-70
2023/05/25 03:26:07;;;;;;;14.02;4.53;;;11.40;99.90;;;;;;6265054;22;92623;-68
2023/05/25 03:28:33;;;;;;;13.65;4.43;;;11.40;99.90;;;;;;6266646;22;92809;-69
2023/05/25 03:30:58;;;;;;;11.73;4.63;;;11.30;99.90;;;;;;6269230;22;93172;-69
2023/05/25 03:33:24;;;;;;;12.70;4.70;;;11.40;99.90;;;;;;6269616;22;92392;-71
2023/05/25 03:35:50;;;;;;;10.98;4.60;;;11.40;99.90;;;;;;6238888;22;92953;-72
2023/05/25 03:38:15;;;;;;;13.40;4.93;;;11.40;99.90;;;;;;6268174;22;94111;-70
2023/05/25 03:40:41;;;;;;;13.48;5.30;;;11.30;99.90;;;;;;6269455;22;92917;-69
2023/05/25 03:43:07;;;;;;;13.90;5.35;;;11.30;99.90;;;;;;6271292;22;92336;-69
2023/05/25 03:45:32;;;;;;;13.02;5.07;;;11.40;99.90;;;;;;6270995;22;92530;-68
2023/05/25 03:47:58;;;;;;;10.25;5.00;;;11.40;99.90;;;;;;6272219;22;94532;-68
2023/05/25 03:50:24;;;;;;;9.65;4.53;;;11.40;99.90;;;;;;6275537;22;93727;-70
2023/05/25 03:52:49;;;;;;;13.82;5.03;;;11.40;99.90;;;;;;6246586;22;92351;-69
2023/05/25 03:55:15;;;;;;;10.90;4.78;;;11.50;99.90;;;;;;6277381;22;92370;-69
2023/05/25 03:57:41;;;;;;;10.35;4.40;;;11.50;99.90;;;;;;6271071;22;93213;-69
2023/05/25 04:00:10;;;;;;;13.25;4.57;;;11.50;99.90;;;;;;6266980;22;92798;-70
2023/05/25 04:02:36;;;;;;;13.23;5.35;;;11.60;99.90;;;;;;6265942;22;92827;-72
2023/05/25 04:05:02;;;;;;;14.65;4.93;;;11.70;99.90;;;;;;6269956;22;91445;-73
2023/05/25 04:07:29;;;;;;;10.82;4.65;;;11.90;99.90;;;;;;6266951;22;93089;-69
2023/05/25 04:09:58;;;;;;;8.82;4.57;;;12.30;99.90;;;;;;6269300;22;93515;-70
2023/05/25 04:12:24;;;;;;;10.18;4.20;;;12.60;99.90;;;;;;6268183;22;93374;-70
2023/05/25 04:14:51;;;;;;;8.77;4.45;;;13.10;99.20;;;;;;6269633;22;92497;-69
2023/05/25 04:17:18;;;;;;;9.57;3.97;;;13.50;98.20;;;;;;6252481;22;93498;-71
2023/05/25 04:19:43;;;;;;;10.88;4.53;;;13.90;96.80;;;;;;6237323;22;93539;-71
2023/05/25 04:22:09;;;;;;;11.20;4.43;;;14.20;95.20;;;;;;6236849;22;92674;-70
2023/05/25 04:24:34;;;;;;;8.85;4.22;;;14.40;94.00;;;;;;6237955;22;92745;-69
2023/05/25 04:27:01;;;;;;;10.90;4.88;;;14.70;93.60;;;;;;6238603;22;92657;-70
2023/05/25 04:29:27;;;;;;;11.73;4.63;;;15.10;92.80;;;;;;6239421;22;92664;-69
2023/05/25 04:31:53;;;;;;;8.73;3.88;;;15.50;91.10;;;;;;6239212;22;92668;-70
2023/05/25 04:34:22;;;;;;;7.90;3.78;;;15.90;90.40;;;;;;6242585;22;92216;-71
2023/05/25 04:36:48;;;;;;;8.23;3.65;;;16.30;88.60;;;;;;6243288;22;94727;-72
2023/05/25 04:39:14;;;;;;;10.35;4.55;;;16.70;85.30;;;;;;6237330;22;94395;-71
2023/05/25 04:41:41;;;;;;;7.88;4.57;;;17.00;83.90;;;;;;6243401;22;92487;-67
2023/05/25 04:44:08;;;;;;;6.97;3.83;;;17.40;82.40;;;;;;6236688;22;92551;-71
2023/05/25 04:46:37;;;;;;;7.43;3.58;;;17.80;81.00;;;;;;6235706;22;93737;-70
2023/05/25 04:49:04;;;;;;;8.27;3.65;;;18.20;79.00;;;;;;6242595;22;92769;-68
2023/05/25 04:51:31;;;;;;;10.45;5.35;;;18.70;76.50;;;;;;6244100;22;92421;-68
2023/05/25 04:53:57;;;;;;;13.25;5.32;;;19.00;74.80;;;;;;6243866;22;91836;-69
2023/05/25 04:56:24;;;;;;;8.38;4.47;;;19.80;74.10;;;;;;6242516;22;92635;-69
2023/05/25 04:58:51;;;;;;;9.25;4.75;;;20.20;70.90;;;;;;6238006;22;93454;-68
2023/05/25 05:01:18;;;;;;;14.30;6.22;;;20.30;69.80;;;;;;6239573;22;92949;-72
2023/05/25 05:03:44;;;;;;;17.88;7.60;;;20.30;70.00;;;;;;6244062;22;92577;-67
2023/05/25 05:06:10;;;;;;;28.60;10.90;;;20.00;70.00;;;;;;6244958;22;93435;-68
2023/05/25 05:08:35;;;;;;;28.23;10.23;;;20.10;70.40;;;;;;6242538;22;92867;-72
2023/05/25 05:11:01;;;;;;;26.60;10.82;;;20.60;67.70;;;;;;6242691;22;92619;-68
2023/05/25 05:13:27;;;;;;;23.40;9.63;;;20.90;67.10;;;;;;6244569;22;92094;-69
2023/05/25 05:15:52;;;;;;;30.50;13.07;;;21.00;67.00;;;;;;6245097;22;93075;-70
2023/05/25 05:18:19;;;;;;;33.20;16.52;;;20.80;66.40;;;;;;6243198;22;92692;-69
2023/05/25 05:20:45;;;;;;;42.17;20.70;;;20.80;66.30;;;;;;6245088;22;92300;-69
2023/05/25 05:23:12;;;;;;;33.83;15.68;;;20.50;66.80;;;;;;6243221;22;92642;-71
2023/05/25 05:25:38;;;;;;;27.90;14.25;;;20.00;67.50;;;;;;6241529;22;93689;-69
2023/05/25 05:28:03;;;;;;;23.88;10.05;;;19.70;68.60;;;;;;6239452;22;94166;-70
2023/05/25 05:30:30;;;;;;;12.77;6.00;;;19.30;69.80;;;;;;6235452;22;92620;-70
2023/05/25 05:32:56;;;;;;;14.25;5.75;;;19.00;71.20;;;;;;6241833;22;92409;-68
2023/05/25 05:35:22;;;;;;;11.85;5.82;;;18.60;73.00;;;;;;6243681;22;92573;-68
2023/05/25 05:37:47;;;;;;;15.20;6.60;;;18.50;73.10;;;;;;6243746;22;93116;-68
2023/05/25 05:40:13;;;;;;;12.68;6.65;;;18.40;73.60;;;;;;6244038;22;92315;-70
2023/05/25 05:42:39;;;;;;;10.35;5.60;;;18.10;74.90;;;;;;6242657;22;91707;-72
2023/05/25 05:45:05;;;;;;;14.48;6.80;;;18.10;74.80;;;;;;6242841;22;93290;-70
2023/05/25 05:47:31;;;;;;;12.43;5.45;;;17.90;75.70;;;;;;6244477;22;92551;-68
2023/05/25 05:49:56;;;;;;;10.73;4.68;;;17.80;75.90;;;;;;6243981;22;93453;-71
2023/05/25 05:52:22;;;;;;;11.23;3.80;;;17.70;76.80;;;;;;6245346;22;92496;-71
2023/05/25 05:54:48;;;;;;;10.63;4.97;;;17.60;77.50;;;;;;6245881;22;92511;-72
2023/05/25 05:57:13;;;;;;;12.25;4.60;;;17.70;77.10;;;;;;6237086;22;92627;-71
2023/05/25 05:59:39;;;;;;;10.70;4.88;;;17.70;76.50;;;;;;6236776;22;92586;-73
2023/05/25 06:02:06;;;;;;;9.93;5.20;;;17.90;76.00;;;;;;6238796;22;92693;-69
2023/05/25 06:04:32;;;;;;;11.77;5.80;;;18.20;75.10;;;;;;6241397;22;92587;-68
2023/05/25 06:06:57;;;;;;;7.65;3.70;;;18.80;74.30;;;;;;6245138;22;92223;-72
2023/05/25 06:09:25;;;;;;;9.23;4.53;;;19.90;70.40;;;;;;6246225;22;92449;-68
2023/05/25 06:11:51;;;;;;;9.95;5.07;;;21.20;67.10;;;;;;6244506;22;92221;-70
2023/05/25 06:14:17;;;;;;;7.30;3.67;;;22.70;63.50;;;;;;6244586;22;94265;-70
2023/05/25 06:16:43;;;;;;;13.73;4.53;;;23.60;61.50;;;;;;6244576;22;93067;-70
2023/05/25 06:19:08;;;;;;;8.13;3.83;;;24.80;58.50;;;;;;6245894;22;92437;-68
2023/05/25 06:21:36;;;;;;;7.97;3.90;;;26.20;56.70;;;;;;6246417;22;92626;-69
2023/05/25 06:24:02;;;;;;;11.10;4.80;;;27.80;52.70;;;;;;6243075;22;92609;-71
2023/05/25 06:26:27;;;;;;;9.80;4.70;;;29.00;50.80;;;;;;6244813;22;93366;-69
2023/05/25 06:28:53;;;;;;;7.60;4.65;;;29.20;48.10;;;;;;6242175;22;92478;-69
2023/05/25 06:31:19;;;;;;;7.57;3.88;;;29.70;47.90;;;;;;6247044;22;91481;-68
2023/05/25 06:33:45;;;;;;;7.53;3.75;;;31.10;46.80;;;;;;6244599;22;93440;-69
2023/05/25 06:36:13;;;;;;;6.60;3.50;;;32.20;44.50;;;;;;6242727;22;92509;-69
2023/05/25 06:38:40;;;;;;;5.63;3.25;;;32.90;42.70;;;;;;6243869;22;93423;-71
2023/05/25 06:41:06;;;;;;;7.35;3.03;;;32.70;42.50;;;;;;6245510;22;92385;-71
2023/05/25 06:43:32;;;;;;;6.47;2.70;;;33.20;42.20;;;;;;6245466;22;92550;-69
2023/05/25 06:45:58;;;;;;;5.72;3.08;;;33.80;41.20;;;;;;6245073;22;92262;-72
2023/05/25 06:48:23;;;;;;;5.88;2.95;;;34.00;40.30;;;;;;6244962;22;92957;-69
2023/05/25 06:50:49;;;;;;;7.13;5.05;;;34.40;40.30;;;;;;6218056;22;92475;-69
2023/05/25 06:53:16;;;;;;;4.85;2.60;;;35.50;39.70;;;;;;6245760;22;92580;-70
2023/05/25 06:55:42;;;;;;;4.00;2.55;;;36.50;37.60;;;;;;6246460;22;92747;-69
2023/05/25 06:58:07;;;;;;;3.72;2.63;;;36.80;37.10;;;;;;6246164;22;92806;-69
2023/05/25 07:00:33;;;;;;;5.60;3.05;;;36.70;35.90;;;;;;6246835;22;92319;-73
2023/05/25 07:02:59;;;;;;;5.22;2.92;;;35.80;36.40;;;;;;6244269;22;93949;-69
2023/05/25 07:05:24;;;;;;;6.65;2.50;;;35.70;37.30;;;;;;6243333;22;94121;-73
2023/05/25 07:07:50;;;;;;;4.70;2.30;;;34.20;37.30;;;;;;6239014;22;92706;-69
2023/05/25 07:10:16;;;;;;;4.60;2.97;;;32.90;39.20;;;;;;6239812;22;92662;-69
2023/05/25 07:12:42;;;;;;;5.72;2.78;;;31.90;39.90;;;;;;6238169;22;93615;-71
2023/05/25 07:15:08;;;;;;;4.40;2.92;;;32.30;39.60;;;;;;6236271;22;93268;-72
2023/05/25 07:17:35;;;;;;;4.35;2.85;;;31.70;39.90;;;;;;6235478;22;92435;-73
2023/05/25 07:20:01;;;;;;;4.82;2.80;;;30.90;40.00;;;;;;6233235;22;91473;-71
2023/05/25 07:22:27;;;;;;;5.78;2.88;;;29.70;42.00;;;;;;6235788;22;93099;-73
2023/05/25 07:24:52;;;;;;;7.22;2.83;;;28.30;43.90;;;;;;6236033;22;92676;-72
2023/05/25 07:27:18;;;;;;;7.05;2.65;;;27.80;46.30;;;;;;6233796;22;93424;-70
2023/05/25 07:29:44;;;;;;;5.28;3.17;;;29.70;44.80;;;;;;6234932;22;92468;-72
2023/05/25 07:32:10;;;;;;;6.55;3.03;;;31.20;40.90;;;;;;6232869;22;93078;-74
2023/05/25 07:34:35;;;;;;;6.57;2.85;;;32.50;41.40;;;;;;6233376;22;92980;-73
2023/05/25 07:37:01;;;;;;;4.65;3.33;;;33.40;39.30;;;;;;6240512;22;92436;-71
2023/05/25 07:39:27;;;;;;;4.60;2.95;;;33.80;37.80;;;;;;6244922;22;92365;-70
2023/05/25 07:41:53;;;;;;;4.50;3.20;;;34.70;37.40;;;;;;6243914;22;93079;-72
2023/05/25 07:44:19;;;;;;;3.50;2.80;;;35.10;36.90;;;;;;6245297;22;92732;-70
2023/05/25 07:46:44;;;;;;;3.40;2.30;;;36.00;37.10;;;;;;6246196;22;92256;-68
2023/05/25 07:49:14;;;;;;;9.15;2.42;;;37.10;35.60;;;;;;6217595;22;92248;-73
2023/05/25 07:51:41;;;;;;;5.15;3.42;;;37.80;34.60;;;;;;6231920;22;94027;-73
2023/05/25 07:54:06;;;;;;;4.20;3.22;;;37.10;33.90;;;;;;6230258;22;93986;-72
2023/05/25 07:56:32;;;;;;;5.32;3.47;;;36.90;35.00;;;;;;6244785;22;92550;-69
2023/05/25 07:58:59;;;;;;;12.50;5.15;;;36.90;34.40;;;;;;6243232;22;92715;-70
2023/05/25 08:01:25;;;;;;;5.32;3.75;;;36.80;35.20;;;;;;6243334;22;92985;-71
2023/05/25 08:03:51;;;;;;;7.72;5.13;;;36.60;34.50;;;;;;6244278;22;92337;-72
2023/05/25 08:06:17;;;;;;;4.60;3.33;;;36.40;34.70;;;;;;6244882;22;92312;-69
2023/05/25 08:08:45;;;;;;;5.72;3.55;;;36.20;36.40;;;;;;6237550;22;91979;-71
2023/05/25 08:11:11;;;;;;;7.22;4.20;;;37.90;35.50;;;;;;6243218;22;93770;-69
2023/05/25 08:13:38;;;;;;;5.63;4.63;;;39.50;33.20;;;;;;6244122;22;93150;-73
2023/05/25 08:16:03;;;;;;;6.40;3.85;;;39.60;32.50;;;;;;6243735;22;93290;-70
2023/05/25 08:18:30;;;;;;;5.45;4.05;;;39.40;32.90;;;;;;6237750;22;92482;-73
2023/05/25 08:20:56;;;;;;;6.43;3.47;;;39.60;32.50;;;;;;6237296;22;92566;-71
2023/05/25 08:23:22;;;;;;;5.65;4.10;;;39.20;32.40;;;;;;6242126;22;93452;-69
2023/05/25 08:25:48;;;;;;;4.65;3.13;;;38.60;32.40;;;;;;6242520;22;92385;-69
2023/05/25 08:28:14;;;;;;;4.28;3.30;;;38.10;32.30;;;;;;6242322;22;92252;-70
2023/05/25 08:30:40;;;;;;;4.97;3.90;;;38.20;33.40;;;;;;6242977;22;92977;-70
2023/05/25 08:33:06;;;;;;;6.38;4.00;;;38.70;34.40;;;;;;6215514;22;96102;-69
2023/05/25 08:35:31;;;;;;;5.03;3.67;;;39.10;32.10;;;;;;6243996;22;92534;-74
2023/05/25 08:37:57;;;;;;;6.07;4.63;;;39.70;32.40;;;;;;6241568;22;92511;-71
2023/05/25 08:40:27;;;;;;;5.82;3.85;;;39.40;31.60;;;;;;6242180;22;94108;-69
2023/05/25 08:42:53;;;;;;;5.05;3.58;;;39.20;31.20;;;;;;6244198;22;94576;-70
2023/05/25 08:45:18;;;;;;;4.25;3.85;;;38.90;31.70;;;;;;6244218;22;92062;-69
2023/05/25 08:47:47;;;;;;;3.45;3.08;;;38.20;31.90;;;;;;6244533;22;92475;-68
2023/05/25 08:50:15;;;;;;;6.45;3.83;;;37.50;32.90;;;;;;6244500;22;92673;-72
2023/05/25 08:52:45;;;;;;;4.03;3.63;;;38.60;33.10;;;;;;6242128;22;92695;-70
2023/05/25 08:55:13;;;;;;;5.82;3.70;;;39.20;32.60;;;;;;6243193;22;92462;-69
2023/05/25 08:57:45;;;;;;;4.22;3.30;;;39.40;33.10;;;;;;6242484;22;92676;-72
2023/05/25 09:00:14;;;;;;;4.85;3.33;;;40.30;33.40;;;;;;6244250;22;92607;-69
2023/05/25 09:03:06;;;;;;;5.43;4.35;;;40.90;30.70;;;;;;6243684;22;92747;-69
2023/05/25 09:05:35;;;;;;;4.88;3.85;;;41.10;31.20;;;;;;6244998;22;92951;-70
2023/05/25 09:08:07;;;;;;;5.15;4.65;;;41.10;31.70;;;;;;6246098;22;92514;-68
2023/05/25 09:10:35;;;;;;;4.35;3.60;;;41.40;32.70;;;;;;6244491;22;93090;-72
2023/05/25 09:13:01;;;;;;;5.25;4.30;;;41.70;31.40;;;;;;6216320;22;93713;-69
2023/05/25 09:15:27;;;;;;;6.15;4.10;;;42.20;30.60;;;;;;6245287;22;92283;-68
2023/05/25 09:17:52;;;;;;;5.60;5.05;;;41.10;30.40;;;;;;6244729;22;92381;-71
2023/05/25 09:20:19;;;;;;;5.35;4.43;;;41.00;31.30;;;;;;6244474;22;93472;-70
2023/05/25 09:22:47;;;;;;;4.43;3.83;;;41.00;31.30;;;;;;6243830;22;92619;-70
2023/05/25 09:25:20;;;;;;;5.35;3.97;;;41.40;30.90;;;;;;6242985;22;92428;-71
2023/05/25 09:27:46;;;;;;;5.28;4.72;;;41.70;31.40;;;;;;6244131;22;92715;-73
2023/05/25 09:30:12;;;;;;;7.85;4.50;;;41.70;30.20;;;;;;6237085;22;94496;-72
2023/05/25 09:32:38;;;;;;;6.32;4.53;;;41.70;30.80;;;;;;6238184;22;93220;-69
2023/05/25 09:35:11;;;;;;;5.30;4.80;;;41.60;30.50;;;;;;6239139;22;92449;-70
2023/05/25 09:37:38;;;;;;;6.47;4.85;;;41.40;30.60;;;;;;6236312;22;92688;-71
2023/05/25 09:40:05;;;;;;;4.35;3.80;;;41.70;31.10;;;;;;6239266;22;92368;-73
2023/05/25 09:42:32;;;;;;;6.32;5.18;;;42.00;32.20;;;;;;6243124;22;94854;-70
2023/05/25 09:44:58;;;;;;;4.93;4.22;;;41.60;31.10;;;;;;6243448;22;92243;-71
2023/05/25 09:47:25;;;;;;;5.55;4.03;;;41.40;32.10;;;;;;6237805;22;91868;-70
2023/05/25 09:49:52;;;;;;;4.28;3.45;;;41.40;30.50;;;;;;6242105;22;93077;-69
2023/05/25 09:52:18;;;;;;;5.85;3.80;;;41.10;31.60;;;;;;6238879;22;93036;-73
2023/05/25 09:54:45;;;;;;;4.53;3.03;;;40.30;31.40;;;;;;6243551;22;93300;-69
2023/05/25 09:57:11;;;;;;;4.93;3.08;;;39.80;32.90;;;;;;6245766;22;92275;-70
2023/05/25 09:59:37;;;;;;;4.38;3.28;;;39.40;32.70;;;;;;6245586;22;93120;-69
2023/05/25 10:02:03;;;;;;;3.55;2.95;;;38.70;33.90;;;;;;6242014;22;93498;-72
2023/05/25 10:04:28;;;;;;;3.50;2.65;;;37.40;33.80;;;;;;6239003;22;92996;-69
2023/05/25 10:06:55;;;;;;;3.63;2.50;;;35.70;36.60;;;;;;6239444;22;92289;-69
2023/05/25 10:09:23;;;;;;;4.00;1.92;;;34.50;36.10;;;;;;6240332;22;92977;-70
2023/05/25 10:11:51;;;;;;;3.28;2.25;;;33.40;37.60;;;;;;6244387;22;92728;-69
2023/05/25 10:14:23;;;;;;;3.10;2.28;;;32.40;39.10;;;;;;6245043;22;92594;-67
2023/05/25 10:16:53;;;;;;;3.17;2.17;;;31.50;39.80;;;;;;6245657;22;92422;-69
2023/05/25 10:19:58;;;;;;;3.58;2.00;;;30.70;41.20;;;;;;6244609;22;93972;-68
2023/05/25 10:22:39;;;;;;;3.42;2.33;;;30.00;41.40;;;;;;6225965;22;93808;-71
2023/05/25 10:25:23;;;;;;;4.90;1.98;;;29.00;44.60;;;;;;6245172;22;92431;-68
2023/05/25 10:28:33;;;;;;;5.10;2.20;;;28.40;48.20;;;;;;6245317;22;92399;-68
2023/05/25 10:31:01;;;;;;;4.40;2.55;;;27.60;49.70;;;;;;6243611;22;92745;-69
2023/05/25 10:33:28;;;;;;;4.20;1.92;;;27.10;47.70;;;;;;6244606;22;93198;-68
2023/05/25 10:35:54;;;;;;;3.25;1.85;;;26.70;49.90;;;;;;6245689;22;92454;-67
2023/05/25 10:38:21;;;;;;;3.22;1.67;;;26.50;50.30;;;;;;6246094;22;92008;-68
2023/05/25 10:40:50;;;;;;;3.53;1.70;;;26.40;52.00;;;;;;6243261;22;92872;-71
2023/05/25 10:43:19;;;;;;;3.95;1.92;;;26.30;52.60;;;;;;6243787;22;92672;-70
2023/05/25 10:45:47;;;;;;;4.03;2.15;;;26.20;53.30;;;;;;6243582;22;93265;-70
2023/05/25 10:48:14;;;;;;;4.65;2.65;;;26.30;52.90;;;;;;6244148;22;92689;-68
2023/05/25 10:50:39;;;;;;;3.80;2.08;;;26.30;52.60;;;;;;6242453;22;93085;-68
2023/05/25 10:53:10;;;;;;;3.55;2.42;;;26.00;54.80;;;;;;6235497;22;92965;-71
2023/05/25 10:55:47;;;;;;;3.60;1.90;;;26.00;54.20;;;;;;6242622;22;92948;-68
2023/05/25 10:58:15;;;;;;;5.30;2.10;;;26.00;51.50;;;;;;6237651;22;94342;-71
2023/05/25 11:00:41;;;;;;;4.25;2.05;;;25.80;51.40;;;;;;6240736;22;93546;-67
2023/05/25 11:03:07;;;;;;;4.13;2.30;;;25.80;53.10;;;;;;6238332;22;92797;-67
2023/05/25 11:05:49;;;;;;;4.20;2.20;;;25.90;53.80;;;;;;6235702;22;92599;-71
2023/05/25 11:08:16;;;;;;;5.93;2.72;;;25.80;55.10;;;;;;6243516;22;92229;-67
2023/05/25 11:10:48;;;;;;;4.05;2.40;;;25.80;55.20;;;;;;6243625;22;94652;-70
2023/05/25 11:13:29;;;;;;;6.85;2.40;;;25.80;55.00;;;;;;6241385;22;93613;-72
2023/05/25 11:16:34;;;;;;;5.43;2.80;;;25.70;55.90;;;;;;6233789;22;92682;-70
2023/05/25 11:19:01;;;;;;;5.22;2.67;;;25.70;54.20;;;;;;6202947;22;92861;-68
2023/05/25 11:21:26;;;;;;;5.80;3.08;;;25.50;54.70;;;;;;6202633;22;93316;-67
2023/05/25 11:23:54;;;;;;;5.85;3.28;;;25.50;55.30;;;;;;6202262;22;93498;-71
2023/05/25 11:26:21;;;;;;;5.80;2.80;;;25.70;55.20;;;;;;6203315;22;92506;-68
2023/05/25 11:28:47;;;;;;;5.03;2.92;;;25.40;55.00;;;;;;6202307;22;91843;-73
2023/05/25 11:31:13;;;;;;;7.38;2.90;;;25.30;55.70;;;;;;6210989;22;93186;-70
2023/05/25 11:33:43;;;;;;;6.07;2.60;;;25.30;55.80;;;;;;6213657;22;93232;-68
2023/05/25 11:36:10;;;;;;;6.95;2.83;;;25.20;55.70;;;;;;6211890;22;93465;-69
2023/05/25 11:38:44;;;;;;;5.50;2.80;;;25.10;54.70;;;;;;6214487;22;92125;-68
2023/05/25 11:41:37;;;;;;;5.55;3.42;;;25.10;55.40;;;;;;6213806;22;93767;-69
2023/05/25 11:44:07;;;;;;;6.70;2.95;;;25.20;57.40;;;;;;6206834;22;92491;-69
2023/05/25 11:46:33;;;;;;;4.95;2.85;;;25.20;56.90;;;;;;6206443;22;92602;-69
2023/05/25 11:48:59;;;;;;;4.88;2.92;;;25.30;57.50;;;;;;6210731;22;92594;-68
2023/05/25 11:51:27;;;;;;;6.88;3.42;;;25.30;56.50;;;;;;6212558;22;93011;-69
2023/05/25 11:53:53;;;;;;;5.60;3.20;;;25.40;57.00;;;;;;6214083;22;93375;-68
2023/05/25 11:56:21;;;;;;;4.68;2.80;;;25.40;57.10;;;;;;6213735;22;92580;-69
2023/05/25 11:58:49;;;;;;;6.18;3.30;;;25.30;57.00;;;;;;6214035;22;92310;-68
2023/05/25 12:01:24;;;;;;;6.03;2.80;;;25.20;56.00;;;;;;6184929;22;96370;-69
2023/05/25 12:03:55;;;;;;;8.57;4.30;;;25.30;56.50;;;;;;6209869;22;93654;-71
2023/05/25 12:06:28;;;;;;;5.72;2.53;;;25.30;57.70;;;;;;6209447;22;92482;-67
2023/05/25 12:08:54;;;;;;;6.32;3.40;;;25.20;57.10;;;;;;6206419;22;92555;-69
2023/05/25 12:11:34;;;;;;;4.25;2.60;;;25.20;56.00;;;;;;6208631;22;93451;-67
2023/05/25 12:14:02;;;;;;;6.53;3.40;;;25.30;56.00;;;;;;6209184;22;92480;-69
2023/05/25 12:16:30;;;;;;;6.90;4.47;;;25.20;56.20;;;;;;6214740;22;92538;-69
2023/05/25 12:18:56;;;;;;;8.85;3.47;;;24.90;58.40;;;;;;6241404;22;91612;-68
2023/05/25 12:21:22;;;;;;;5.78;3.40;;;25.00;58.10;;;;;;6240778;22;92517;-68
2023/05/25 12:23:49;;;;;;;7.90;3.63;;;24.90;59.20;;;;;;6241379;22;92803;-71
2023/05/25 12:26:17;;;;;;;6.57;3.40;;;25.00;57.50;;;;;;6239983;22;93147;-70
2023/05/25 12:29:03;;;;;;;4.75;3.05;;;25.10;57.50;;;;;;6241402;22;92310;-72
2023/05/25 12:31:34;;;;;;;6.82;3.47;;;25.00;58.50;;;;;;6239929;22;93520;-70
2023/05/25 12:34:10;;;;;;;6.20;3.45;;;25.30;57.50;;;;;;6241962;22;93465;-69
2023/05/25 12:36:53;;;;;;;7.43;4.18;;;25.50;57.10;;;;;;6243141;22;92283;-69
2023/05/25 12:39:37;;;;;;;5.93;4.10;;;25.30;56.40;;;;;;6242930;22;92366;-71
2023/05/25 12:42:04;;;;;;;5.75;3.60;;;25.10;57.00;;;;;;6242460;22;93116;-69
2023/05/25 12:44:34;;;;;;;8.77;4.40;;;25.30;57.80;;;;;;6242816;22;94549;-69
2023/05/25 12:47:13;;;;;;;6.95;3.72;;;25.10;56.50;;;;;;6241985;22;91997;-71
2023/05/25 12:49:40;;;;;;;9.77;4.45;;;25.00;56.50;;;;;;6243317;22;92303;-68
2023/05/25 12:52:08;;;;;;;9.60;4.57;;;25.00;57.60;;;;;;6238886;22;94117;-68
2023/05/25 12:54:34;;;;;;;7.57;4.30;;;24.70;58.10;;;;;;6241600;22;93277;-71
2023/05/25 12:57:01;;;;;;;11.48;5.63;;;24.80;57.60;;;;;;6242296;22;92582;-69
2023/05/25 12:59:27;;;;;;;9.77;5.30;;;24.70;60.10;;;;;;6242504;22;92524;-67
2023/05/25 13:01:53;;;;;;;9.57;4.65;;;24.70;58.70;;;;;;6217725;22;96367;-68
2023/05/25 13:04:19;;;;;;;7.82;4.93;;;24.70;57.60;;;;;;6216899;22;95269;-72
2023/05/25 13:06:44;;;;;;;9.55;4.30;;;24.60;58.40;;;;;;6243766;22;92322;-69
2023/05/25 13:09:10;;;;;;;9.32;5.18;;;24.70;58.50;;;;;;6245506;22;91643;-67
2023/05/25 13:11:36;;;;;;;7.82;5.40;;;24.70;59.40;;;;;;6244588;22;92598;-68
2023/05/25 13:14:03;;;;;;;7.50;4.68;;;24.50;58.80;;;;;;6216589;22;92882;-67
2023/05/25 13:16:32;;;;;;;7.80;4.57;;;24.50;59.40;;;;;;6242642;22;93359;-71
2023/05/25 13:18:58;;;;;;;8.27;5.45;;;24.50;59.70;;;;;;6244557;22;92409;-71
2023/05/25 13:21:24;;;;;;;11.48;4.85;;;24.60;58.40;;;;;;6243615;22;93307;-67
2023/05/25 13:23:50;;;;;;;11.55;5.45;;;24.70;58.10;;;;;;6244105;22;92679;-69
2023/05/25 13:26:16;;;;;;;10.48;5.50;;;24.50;58.80;;;;;;6218676;22;93096;-69
2023/05/25 13:28:41;;;;;;;10.35;6.00;;;24.60;58.10;;;;;;6245976;22;92112;-67
2023/05/25 13:31:07;;;;;;;8.55;5.38;;;24.50;58.10;;;;;;6245502;22;92724;-68
2023/05/25 13:33:33;;;;;;;9.75;5.60;;;24.50;58.20;;;;;;6245535;22;92732;-67
2023/05/25 13:36:06;;;;;;;9.63;5.38;;;24.50;58.00;;;;;;6245459;22;92468;-68
2023/05/25 13:38:32;;;;;;;8.80;4.82;;;24.40;58.80;;;;;;6245236;22;92463;-68
2023/05/25 13:40:58;;;;;;;11.38;6.35;;;24.60;59.90;;;;;;6244270;22;93998;-67
2023/05/25 13:43:25;;;;;;;8.35;5.95;;;24.60;58.60;;;;;;6245222;22;93831;-67
2023/05/25 13:45:50;;;;;;;11.88;5.55;;;24.50;58.80;;;;;;6246412;22;92030;-72
2023/05/25 13:48:16;;;;;;;10.65;5.65;;;24.40;59.10;;;;;;6246649;22;92080;-71
2023/05/25 13:50:43;;;;;;;9.20;5.30;;;24.40;59.00;;;;;;6246128;22;92591;-67
2023/05/25 13:53:10;;;;;;;8.40;4.95;;;24.50;58.50;;;;;;6245499;22;92294;-68
2023/05/25 13:55:35;;;;;;;11.65;6.22;;;24.60;58.90;;;;;;6245351;22;93637;-67
2023/05/25 13:58:01;;;;;;;10.02;5.55;;;24.80;58.50;;;;;;6246494;22;91624;-69
2023/05/25 14:00:27;;;;;;;15.15;6.07;;;24.90;59.80;;;;;;6245507;22;93046;-67
2023/05/25 14:02:53;;;;;;;10.52;5.28;;;25.00;58.70;;;;;;6245026;22;92838;-68
2023/05/25 14:05:19;;;;;;;9.48;5.22;;;25.00;59.00;;;;;;6219180;22;93348;-68
2023/05/25 14:07:48;;;;;;;9.45;4.78;;;25.00;58.90;;;;;;6245833;22;92469;-67
2023/05/25 14:10:14;;;;;;;15.52;6.18;;;24.90;59.10;;;;;;6245842;22;93391;-69
2023/05/25 14:12:40;;;;;;;10.88;5.32;;;24.70;59.60;;;;;;6244780;22;93561;-68
2023/05/25 14:15:06;;;;;;;8.90;5.13;;;24.80;59.50;;;;;;6244894;22;92821;-69
2023/05/25 14:17:32;;;;;;;9.00;4.93;;;24.80;59.20;;;;;;6245045;22;92385;-69
2023/05/25 14:19:58;;;;;;;11.23;6.30;;;24.90;59.30;;;;;;6245172;22;92737;-68
2023/05/25 14:22:25;;;;;;;9.60;5.35;;;24.90;59.80;;;;;;6246112;22;92687;-68
2023/05/25 14:24:51;;;;;;;10.50;5.45;;;24.80;58.60;;;;;;6245076;22;92868;-68
2023/05/25 14:27:19;;;;;;;8.80;4.95;;;24.70;59.00;;;;;;6245957;22;92545;-70
2023/05/25 14:29:46;;;;;;;9.55;5.13;;;24.70;60.20;;;;;;6244513;22;94044;-68
2023/05/25 14:32:13;;;;;;;8.65;4.90;;;24.80;59.90;;;;;;6244000;22;93827;-67
2023/05/25 14:34:39;;;;;;;11.75;5.32;;;25.10;59.60;;;;;;6245592;22;92338;-68
2023/05/25 14:37:05;;;;;;;14.07;5.65;;;25.40;58.80;;;;;;6245124;22;92576;-67
2023/05/25 14:39:30;;;;;;;10.15;5.22;;;25.50;58.40;;;;;;6238461;22;93043;-71
2023/05/25 14:41:56;;;;;;;9.85;4.95;;;25.50;58.50;;;;;;6236444;22;92820;-72
2023/05/25 14:44:22;;;;;;;10.05;5.45;;;25.50;58.00;;;;;;6242205;22;92541;-70
2023/05/25 14:46:47;;;;;;;10.38;5.25;;;25.50;58.50;;;;;;6238131;22;91625;-72
2023/05/25 14:49:13;;;;;;;13.65;6.53;;;25.30;58.90;;;;;;6233670;22;93232;-70
2023/05/25 14:51:39;;;;;;;13.43;4.75;;;25.20;58.70;;;;;;6235708;22;93459;-71
2023/05/25 14:54:06;;;;;;;13.38;5.05;;;25.30;59.10;;;;;;6238816;22;93656;-74
2023/05/25 14:56:32;;;;;;;11.68;5.32;;;25.30;59.20;;;;;;6241819;22;92568;-69
2023/05/25 14:58:58;;;;;;;16.65;5.25;;;25.20;58.50;;;;;;6245500;22;93033;-68
2023/05/25 15:01:23;;;;;;;9.48;5.55;;;25.20;59.70;;;;;;6245693;22;92736;-69
2023/05/25 15:03:49;;;;;;;9.95;5.05;;;25.00;59.40;;;;;;6246042;22;92605;-68
2023/05/25 15:06:14;;;;;;;9.43;4.97;;;25.10;60.50;;;;;;6243507;22;92487;-70
2023/05/25 15:08:40;;;;;;;11.23;4.68;;;25.40;60.20;;;;;;6237374;22;92702;-69
2023/05/25 15:11:08;;;;;;;9.77;5.05;;;25.60;59.60;;;;;;6237596;22;92681;-70
2023/05/25 15:13:34;;;;;;;8.25;4.55;;;25.70;59.40;;;;;;6238222;22;91996;-69
2023/05/25 15:16:00;;;;;;;9.68;5.43;;;25.60;59.80;;;;;;6239816;22;92311;-68
2023/05/25 15:18:26;;;;;;;9.25;5.10;;;25.50;58.90;;;;;;6236884;22;93846;-70
2023/05/25 15:20:51;;;;;;;10.43;5.55;;;25.40;60.10;;;;;;6238295;22;93483;-73
2023/05/25 15:23:17;;;;;;;12.07;5.43;;;25.30;59.70;;;;;;6237779;22;92685;-70
2023/05/25 15:25:43;;;;;;;11.40;5.50;;;25.30;59.10;;;;;;6238119;22;92423;-70
2023/05/25 15:28:08;;;;;;;15.23;6.20;;;25.20;59.70;;;;;;6236575;22;93774;-71
2023/05/25 15:30:35;;;;;;;7.72;4.40;;;25.10;59.40;;;;;;6236923;22;92951;-71
2023/05/25 15:33:01;;;;;;;11.48;5.78;;;24.90;59.90;;;;;;6235865;22;92571;-69
2023/05/25 15:35:30;;;;;;;10.75;5.18;;;24.80;60.00;;;;;;6235329;22;91853;-71
2023/05/25 15:37:59;;;;;;;14.80;6.47;;;24.70;60.20;;;;;;6233111;22;93861;-72
2023/05/25 15:40:25;;;;;;;13.05;5.53;;;24.50;60.90;;;;;;6235205;22;94958;-68
2023/05/25 15:42:51;;;;;;;10.73;5.70;;;24.40;60.90;;;;;;6233593;22;93546;-69
2023/05/25 15:45:17;;;;;;;9.20;6.28;;;24.40;60.80;;;;;;6236056;22;92379;-72
2023/05/25 15:47:43;;;;;;;13.40;6.57;;;24.40;60.90;;;;;;6235569;22;93456;-70
2023/05/25 15:50:09;;;;;;;14.10;6.55;;;24.30;60.80;;;;;;6245792;22;92446;-71
2023/05/25 15:52:35;;;;;;;9.35;5.13;;;24.20;61.20;;;;;;6246030;22;92490;-69
2023/05/25 15:55:01;;;;;;;10.88;5.03;;;24.40;60.60;;;;;;6246333;22;92467;-69
2023/05/25 15:57:26;;;;;;;10.50;5.15;;;24.40;58.40;;;;;;6244746;22;93048;-73
2023/05/25 15:59:52;;;;;;;9.80;5.30;;;24.40;59.70;;;;;;6239831;22;92135;-73